James Clark Ross — ZDLP — position and weather

sailwx.info

Track history (hours):
 
Tides and Currents Weather Stations Pressure Air Temp Water Temp Dewpoint Dewpoint Depression Visibility Wind Speed Wind Dir Waves Ship Positions

Oceanographic research ship James Clark Ross (UK)

Detailed information on ship capabilities available from University of Delaware's Ocean Information Center and ARCUS's ALIAS (Arctic Logistics Information and Support) project.

Last reported at 2014-Sep-01 19:00 UTC. Time now 2014-Sep-01 21:03 UTC.
Position N 57°24' E 010°30'.

Length 99 m; beam 18.8 m; draft 6.3 m.

Type: Ship. MMSI: 740339000.

AWS

Barometer 1021.8 mb

Date/timePositionNaut miles runAvg speedWind from/ knotsBaromVisibWave heightAir tempDewpointWater temp
2014-Sep-01 19:00N 57°24' E 010°30'3 5.4 1021.8
2014-Sep-01 18:30N 57°26' E 010°33'3 5.3
2014-Sep-01 18:00N 57°24' E 010°30'0 0.0 1021.4
2014-Sep-01 17:00N 57°24' E 010°30'0 0.0 1021.5
2014-Sep-01 16:00N 57°24' E 010°30'0 0.0 1021.6
2014-Sep-01 15:00N 57°24' E 010°30'3 3.8 1022.0
2014-Sep-01 14:18N 57°26' E 010°33'3 8.9
2014-Sep-01 14:00N 57°24' E 010°30'0 0.0 1022.1
2014-Sep-01 13:00N 57°24' E 010°30'0 0.0 1022.2
2014-Sep-01 12:00N 57°24' E 010°30'0 0.0 1022.1
2014-Sep-01 11:00N 57°24' E 010°30'0 0.0 1022.0
2014-Sep-01 10:00N 57°24' E 010°30'0 0.0 1021.8
2014-Sep-01 09:00N 57°24' E 010°30'0 0.0 1021.7
2014-Sep-01 08:00N 57°24' E 010°30'0 0.0 1021.4
2014-Sep-01 07:00N 57°24' E 010°30'3 3.8 1021.1
2014-Sep-01 06:18N 57°26' E 010°33'3 8.9
2014-Sep-01 06:00N 57°24' E 010°30'0 0.0 1020.7
2014-Sep-01 05:00N 57°24' E 010°30'0 0.0 1020.5
2014-Sep-01 04:00N 57°24' E 010°30'0 0.0 1020.4
2014-Sep-01 03:00N 57°24' E 010°30'0 0.0 1020.3
2014-Sep-01 02:00N 57°24' E 010°30'0 0.0 1020.3
2014-Sep-01 01:00N 57°24' E 010°30'0 0.0 1020.4
2014-Sep-01 00:00N 57°24' E 010°30'0 0.0 1020.4
2014-Aug-31 23:00N 57°24' E 010°30'0 0.0 1019.9
2014-Aug-31 22:00N 57°24' E 010°30'0 0.0 1019.6
2014-Aug-31 21:00N 57°24' E 010°30'0 0.0 1019.3
2014-Aug-31 20:00N 57°24' E 010°30'0 0.0 1018.9
2014-Aug-31 19:00N 57°24' E 010°30'0 0.0 1018.4
2014-Aug-31 18:00N 57°24' E 010°30'0 0.0 1017.7
2014-Aug-31 17:00N 57°24' E 010°30'0 0.0 1017.5
2014-Aug-31 16:00N 57°24' E 010°30'0 0.0 1017.5
2014-Aug-31 15:00N 57°24' E 010°30'0 0.0 1017.0
2014-Aug-31 14:00N 57°24' E 010°30'0 0.0 1016.8
2014-Aug-31 13:00N 57°24' E 010°30'0 0.0 1016.7
2014-Aug-31 12:00N 57°24' E 010°30'0 0.0 1016.5
2014-Aug-31 11:00N 57°24' E 010°30'0 0.0 1016.1
2014-Aug-31 10:00N 57°24' E 010°30'0 0.0 1015.8
2014-Aug-31 09:00N 57°24' E 010°30'0 0.0 1015.3
2014-Aug-31 08:00N 57°24' E 010°30'3 1.0 1014.5
2014-Aug-31 05:15N 57°26' E 010°33'0 0.0
2014-Aug-31 04:32N 57°26' E 010°33'3 4.8
2014-Aug-31 04:00N 57°24' E 010°30'3 5.9 1012.5
2014-Aug-31 03:32N 57°26' E 010°33'3 4.8
2014-Aug-31 03:00N 57°24' E 010°30'0 0.0 1012.5
2014-Aug-31 02:00N 57°24' E 010°30'0 0.0 1012.5
2014-Aug-31 01:00N 57°24' E 010°30'0 0.0 1012.5
2014-Aug-31 00:00N 57°24' E 010°30'0 0.0 1012.4
2014-Aug-30 23:00N 57°24' E 010°30'0 0.0 1012.1
2014-Aug-30 22:00N 57°24' E 010°30'0 0.0 1011.9
2014-Aug-30 21:00N 57°24' E 010°30'0 0.0 1011.8
2014-Aug-30 20:00N 57°24' E 010°30'0 0.0 1011.5
2014-Aug-30 19:00N 57°24' E 010°30'0 0.0 1011.2
2014-Aug-30 18:00N 57°24' E 010°30'0 0.0 1010.9
2014-Aug-30 17:00N 57°24' E 010°30'0 0.0 1011.0
2014-Aug-30 16:00N 57°24' E 010°30'0 0.0 1011.3
2014-Aug-30 15:00N 57°24' E 010°30'0 0.0 1011.3
2014-Aug-30 14:00N 57°24' E 010°30'0 0.0 1011.6
2014-Aug-30 13:00N 57°24' E 010°30'0 0.0 1012.0
2014-Aug-30 12:00N 57°24' E 010°30'0 0.0 1012.1
2014-Aug-30 11:00N 57°24' E 010°30'0 0.0 1012.2
2014-Aug-30 10:00N 57°24' E 010°30'0 0.0 1012.1
2014-Aug-30 09:00N 57°24' E 010°30'0 0.0 1012.1
2014-Aug-30 08:00N 57°24' E 010°30'0 0.0 1012.1
2014-Aug-30 07:00N 57°24' E 010°30'0 0.0 1012.1
2014-Aug-30 06:00N 57°24' E 010°30'0 0.0 1011.8
2014-Aug-30 05:00N 57°24' E 010°30'0 0.0 1011.6
2014-Aug-30 04:00N 57°24' E 010°30'0 0.0 1011.5
2014-Aug-30 03:00N 57°24' E 010°30'0 0.0 1011.5
2014-Aug-30 02:00N 57°24' E 010°30'0 0.0 1011.7
2014-Aug-30 01:00N 57°24' E 010°30'0 0.0 1011.5
2014-Aug-30 00:00N 57°24' E 010°30'0 0.0 1011.3
2014-Aug-29 23:00N 57°24' E 010°30'0 0.0 1011.7
2014-Aug-29 22:00N 57°24' E 010°30'0 0.0 1012.0
2014-Aug-29 21:00N 57°24' E 010°30'0 0.0 1012.2
2014-Aug-29 20:00N 57°24' E 010°30'0 0.0 1012.3
2014-Aug-29 19:00N 57°24' E 010°30'0 0.0 1012.5
2014-Aug-29 18:00N 57°24' E 010°30'0 0.0 1012.5
2014-Aug-29 17:00N 57°24' E 010°30'0 0.0 1012.6
2014-Aug-29 16:00N 57°24' E 010°30'0 0.0 1013.1
2014-Aug-29 15:00N 57°24' E 010°30'0 0.0 1013.1
2014-Aug-29 14:00N 57°24' E 010°30'0 0.0 1013.1
2014-Aug-29 13:00N 57°24' E 010°30'0 0.0 1013.5
2014-Aug-29 12:00N 57°24' E 010°30'3 4.4 1013.4
2014-Aug-29 11:23N 57°26' E 010°33'3 6.7
2014-Aug-29 11:00N 57°24' E 010°30'3 5.3 1013.7
2014-Aug-29 10:29N 57°26' E 010°33'3 5.4
2014-Aug-29 10:00N 57°24' E 010°30'3 5.3 1013.9
2014-Aug-29 09:29N 57°26' E 010°33'3 5.4
2014-Aug-29 09:00N 57°24' E 010°30'0 0.0 1014.1
2014-Aug-29 08:00N 57°24' E 010°30'0 0.0 1014.1
2014-Aug-29 07:00N 57°24' E 010°30'0 0.0 1014.3
2014-Aug-29 06:00N 57°24' E 010°30'0 0.0 1014.4
2014-Aug-29 05:00N 57°24' E 010°30'0 0.0 1014.4
2014-Aug-29 04:00N 57°24' E 010°30'0 0.0 1014.5
2014-Aug-29 03:00N 57°24' E 010°30'0 0.0 1014.8
2014-Aug-29 02:00N 57°24' E 010°30'0 0.0 1015.0
2014-Aug-29 01:00N 57°24' E 010°30'0 0.0 1015.4
2014-Aug-29 00:00N 57°24' E 010°30'0 0.0 1015.5
2014-Aug-28 23:00N 57°24' E 010°30'0 0.0 1015.8
2014-Aug-28 22:00N 57°24' E 010°30'0 0.0 1015.8
2014-Aug-28 21:00N 57°24' E 010°30'0 0.0 1015.9
2014-Aug-28 20:00N 57°24' E 010°30'0 0.0 1015.9
2014-Aug-28 19:00N 57°24' E 010°30'3 3.3 1015.9
2014-Aug-28 18:11N 57°26' E 010°33'313.6
2014-Aug-28 18:00N 57°24' E 010°30'0 0.0 1015.3
2014-Aug-28 17:00N 57°24' E 010°30'0 0.0 1015.4
2014-Aug-28 16:00N 57°24' E 010°30'0 0.0 1015.6
2014-Aug-28 15:00N 57°24' E 010°30'0 0.0 1015.8
2014-Aug-28 14:00N 57°24' E 010°30'0 0.0 1015.9
2014-Aug-28 13:00N 57°24' E 010°30'0 0.0 1015.9
2014-Aug-28 12:00N 57°24' E 010°30'0 0.0 1015.9
2014-Aug-28 11:00N 57°24' E 010°30'0 0.0 1015.7
2014-Aug-28 10:00N 57°24' E 010°30'0 0.0 1015.7
2014-Aug-28 09:00N 57°24' E 010°30'0 0.0 1015.7
2014-Aug-28 08:00N 57°24' E 010°30'0 0.0 1015.4
2014-Aug-28 07:00N 57°24' E 010°30'0 0.0 1015.4
2014-Aug-27 19:00N 57°24' E 010°30'0 0.0 1014.7
2014-Aug-27 18:00N 57°24' E 010°30'0 0.0 1014.6
2014-Aug-27 17:00N 57°24' E 010°30'0 0.0 1014.5
2014-Aug-27 16:00N 57°24' E 010°30'0 0.0 1014.5
2014-Aug-27 15:00N 57°24' E 010°30'0 0.0 1014.5
2014-Aug-27 14:00N 57°24' E 010°30'0 0.0 1014.6
2014-Aug-27 13:00N 57°24' E 010°30'0 0.0 1014.6
2014-Aug-27 12:00N 57°24' E 010°30'0 0.0 1014.5
2014-Aug-27 11:00N 57°24' E 010°30'0 0.0 1014.5
2014-Aug-27 10:00N 57°24' E 010°30'0 0.0 1014.3
2014-Aug-27 09:00N 57°24' E 010°30'0 0.0 1014.0
2014-Aug-27 08:00N 57°24' E 010°30'0 0.0 1013.6
2014-Aug-27 07:00N 57°24' E 010°30'0 0.0 1013.2
2014-Aug-27 06:00N 57°24' E 010°30'0 0.0 1012.7
2014-Aug-27 05:00N 57°24' E 010°30'0 0.0 1012.2
2014-Aug-27 04:00N 57°24' E 010°30'0 0.0 1011.9
2014-Aug-27 03:00N 57°24' E 010°30'0 0.0 1011.6
2014-Aug-27 02:00N 57°24' E 010°30'0 0.0 1011.4
2014-Aug-27 01:00N 57°24' E 010°30'0 0.0 1011.2
2014-Aug-27 00:00N 57°24' E 010°30'0 0.0 1011.0
2014-Aug-26 23:00N 57°24' E 010°30'0 0.0 1011.0
2014-Aug-26 22:00N 57°24' E 010°30'0 0.0 1010.8
2014-Aug-26 21:00N 57°24' E 010°30'0 0.0 1010.7
2014-Aug-26 20:00N 57°24' E 010°30'0 0.0 1010.6
2014-Aug-26 19:00N 57°24' E 010°30'0 0.0 1010.0
2014-Aug-26 18:00N 57°24' E 010°30'0 0.0 1009.5
2014-Aug-26 15:00N 57°24' E 010°30'0 0.0 1009.3
2014-Aug-26 14:00N 57°24' E 010°30'0 0.0 1009.4
2014-Aug-26 13:00N 57°24' E 010°30'0 0.0 1009.3
2014-Aug-26 12:00N 57°24' E 010°30'0 0.0 1009.0
2014-Aug-26 11:00N 57°24' E 010°30'0 0.0 1009.1
2014-Aug-26 10:00N 57°24' E 010°30'0 0.0 1008.9
2014-Aug-26 09:00N 57°24' E 010°30'0 0.0 1008.5
2014-Aug-26 08:00N 57°24' E 010°30'0 0.0 1008.1
2014-Aug-26 07:00N 57°24' E 010°30'0 0.0 1007.5
2014-Aug-26 06:00N 57°24' E 010°30'0 0.0 1007.1
2014-Aug-26 05:00N 57°24' E 010°30'0 0.0 1007.2
2014-Aug-26 04:00N 57°24' E 010°30'0 0.0 1007.0
2014-Aug-26 03:00N 57°24' E 010°30'0 0.0 1006.9
2014-Aug-26 02:00N 57°24' E 010°30'0 0.0 1007.0
2014-Aug-26 01:00N 57°24' E 010°30'0 0.0 1006.9
2014-Aug-26 00:00N 57°24' E 010°30'0 0.0 1007.0
2014-Aug-25 23:00N 57°24' E 010°30'0 0.0 1007.3
2014-Aug-25 22:00N 57°24' E 010°30'0 0.0 1007.1
2014-Aug-25 21:00N 57°24' E 010°30'0 0.0 1007.2
2014-Aug-25 20:00N 57°24' E 010°30'0 0.0 1007.5
2014-Aug-25 19:00N 57°24' E 010°30'0 0.0 1007.3
2014-Aug-25 18:00N 57°24' E 010°30'0 0.0 1006.9
2014-Aug-25 17:00N 57°24' E 010°30'0 0.0 1006.9
2014-Aug-25 16:00N 57°24' E 010°30'0 0.0 1007.1
2014-Aug-25 15:00N 57°24' E 010°30'0 0.0 1007.2
2014-Aug-25 14:00N 57°24' E 010°30'0 0.0 1007.1
2014-Aug-25 13:00N 57°24' E 010°30'0 0.0 1007.3
2014-Aug-25 12:00N 57°24' E 010°30'0 0.0 1007.5
2014-Aug-25 11:00N 57°24' E 010°30'0 0.0 1007.5
2014-Aug-25 10:00N 57°24' E 010°30'0 0.0 1007.5
2014-Aug-25 09:00N 57°24' E 010°30'0 0.0 1007.4
2014-Aug-25 08:00N 57°24' E 010°30'0 0.0 1007.2
2014-Aug-25 07:00N 57°24' E 010°30'0 0.0 1007.0
2014-Aug-25 06:00N 57°24' E 010°30'0 0.0 1007.0
2014-Aug-25 05:00N 57°24' E 010°30'0 0.0 1007.0
2014-Aug-25 04:00N 57°24' E 010°30'0 0.0 1007.0
2014-Aug-25 03:00N 57°24' E 010°30'0 0.0 1006.8
2014-Aug-25 02:00N 57°24' E 010°30'0 0.0 1006.9
2014-Aug-25 01:00N 57°24' E 010°30'0 0.0 1006.9
2014-Aug-25 00:00N 57°24' E 010°30'0 0.0 1007.3
2014-Aug-24 23:00N 57°24' E 010°30'0 0.0 1007.5
2014-Aug-24 22:00N 57°24' E 010°30'0 0.0 1007.5
2014-Aug-24 21:00N 57°24' E 010°30'0 0.0 1007.5
2014-Aug-24 20:00N 57°24' E 010°30'0 0.0 1007.3
2014-Aug-24 19:00N 57°24' E 010°30'0 0.0 1007.0
2014-Aug-24 18:00N 57°24' E 010°30'0 0.0 1006.5
2014-Aug-24 17:00N 57°24' E 010°30'0 0.0 1006.4
2014-Aug-24 16:00N 57°24' E 010°30'0 0.0 1006.1
2014-Aug-24 15:00N 57°24' E 010°30'0 0.0 1005.5
2014-Aug-24 14:00N 57°24' E 010°30'0 0.0 1005.5
2014-Aug-24 13:00N 57°24' E 010°30'0 0.0 1005.1
2014-Aug-24 12:00N 57°24' E 010°30'0 0.0 1004.9
2014-Aug-24 11:00N 57°24' E 010°30'0 0.0 1004.9
2014-Aug-24 10:00N 57°24' E 010°30'0 0.0 1004.7
2014-Aug-24 09:00N 57°24' E 010°30'0 0.0 1004.6
2014-Aug-24 08:00N 57°24' E 010°30'0 0.0 1004.5
2014-Aug-24 07:00N 57°24' E 010°30'0 0.0 1004.4
2014-Aug-24 06:00N 57°24' E 010°30'0 0.0 1004.4
2014-Aug-24 05:00N 57°24' E 010°30'0 0.0 1004.1
2014-Aug-24 04:00N 57°24' E 010°30'0 0.0 1004.5
2014-Aug-24 03:00N 57°24' E 010°30'0 0.0 1004.9
2014-Aug-24 02:00N 57°24' E 010°30'0 0.0 1005.1
2014-Aug-24 01:00N 57°24' E 010°30'0 0.0 1005.6
2014-Aug-24 00:00N 57°24' E 010°30'0 0.0 1005.5
2014-Aug-23 23:00N 57°24' E 010°30'0 0.0 1005.8
2014-Aug-23 22:00N 57°24' E 010°30'0 0.0 1005.8
2014-Aug-23 21:00N 57°24' E 010°30'0 0.0 1005.9
2014-Aug-23 20:00N 57°24' E 010°30'0 0.0 1005.5
2014-Aug-23 19:00N 57°24' E 010°30'0 0.0 1005.1
2014-Aug-23 18:00N 57°24' E 010°30'0 0.0 1004.7
2014-Aug-23 17:00N 57°24' E 010°30'0 0.0 1004.3
2014-Aug-23 16:00N 57°24' E 010°30'0 0.0 1004.4
2014-Aug-23 15:00N 57°24' E 010°30'0 0.0 1004.3
2014-Aug-23 14:00N 57°24' E 010°30'0 0.0 1004.4
2014-Aug-23 13:00N 57°24' E 010°30'0 0.0 1004.4
2014-Aug-23 12:00N 57°24' E 010°30'0 0.0 1004.4
2014-Aug-23 11:00N 57°24' E 010°30'0 0.0 1004.4
2014-Aug-23 10:00N 57°24' E 010°30'0 0.0 1004.0
2014-Aug-23 09:00N 57°24' E 010°30'0 0.0 1003.7
2014-Aug-23 08:00N 57°24' E 010°30'0 0.0 1003.5
2014-Aug-23 07:00N 57°24' E 010°30'0 0.0 1003.3
2014-Aug-23 06:00N 57°24' E 010°30'0 0.0 1003.0
2014-Aug-23 05:00N 57°24' E 010°30'0 0.0 1002.8
2014-Aug-23 04:00N 57°24' E 010°30'0 0.0 1002.6
2014-Aug-23 03:00N 57°24' E 010°30'0 0.0 1002.8
2014-Aug-23 02:00N 57°24' E 010°30'0 0.0 1003.0
2014-Aug-23 01:00N 57°24' E 010°30'0 0.0 1003.2
2014-Aug-23 00:00N 57°24' E 010°30'0 0.0 1003.3
2014-Aug-22 23:00N 57°24' E 010°30'0 0.0 1003.6
2014-Aug-22 22:00N 57°24' E 010°30'0 0.0 1003.8
2014-Aug-22 21:00N 57°24' E 010°30'0 0.0 1004.1
2014-Aug-22 20:00N 57°24' E 010°30'0 0.0 1004.0
2014-Aug-22 19:00N 57°24' E 010°30'   1004.1
Track history (hours):
 
Tides and Currents Weather Stations Pressure Air Temp Water Temp Dewpoint Dewpoint Depression Visibility Wind Speed Wind Dir Waves Ship Positions

Oceanographic research ship James Clark Ross (UK)

Detailed information on ship capabilities available from University of Delaware's Ocean Information Center and ARCUS's ALIAS (Arctic Logistics Information and Support) project.

Last reported at 2014-Sep-01 19:00 UTC. Time now 2014-Sep-01 21:03 UTC.
Position N 57°24' E 010°30'.

Length 99 m; beam 18.8 m; draft 6.3 m.

Type: Ship. MMSI: 740339000.

AWS

Barometer 1021.8 mb

Date/timePositionNaut miles runAvg speedWind from/ knotsBaromVisibWave heightAir tempDewpointWater temp
2014-Sep-01 19:00N 57°24' E 010°30'3 5.4 1021.8
2014-Sep-01 18:30N 57°26' E 010°33'3 5.3
2014-Sep-01 18:00N 57°24' E 010°30'0 0.0 1021.4
2014-Sep-01 17:00N 57°24' E 010°30'0 0.0 1021.5
2014-Sep-01 16:00N 57°24' E 010°30'0 0.0 1021.6
2014-Sep-01 15:00N 57°24' E 010°30'3 3.8 1022.0
2014-Sep-01 14:18N 57°26' E 010°33'3 8.9
2014-Sep-01 14:00N 57°24' E 010°30'0 0.0 1022.1
2014-Sep-01 13:00N 57°24' E 010°30'0 0.0 1022.2
2014-Sep-01 12:00N 57°24' E 010°30'0 0.0 1022.1
2014-Sep-01 11:00N 57°24' E 010°30'0 0.0 1022.0
2014-Sep-01 10:00N 57°24' E 010°30'0 0.0 1021.8
2014-Sep-01 09:00N 57°24' E 010°30'0 0.0 1021.7
2014-Sep-01 08:00N 57°24' E 010°30'0 0.0 1021.4
2014-Sep-01 07:00N 57°24' E 010°30'3 3.8 1021.1
2014-Sep-01 06:18N 57°26' E 010°33'3 8.9
2014-Sep-01 06:00N 57°24' E 010°30'0 0.0 1020.7
2014-Sep-01 05:00N 57°24' E 010°30'0 0.0 1020.5
2014-Sep-01 04:00N 57°24' E 010°30'0 0.0 1020.4
2014-Sep-01 03:00N 57°24' E 010°30'0 0.0 1020.3
2014-Sep-01 02:00N 57°24' E 010°30'0 0.0 1020.3
2014-Sep-01 01:00N 57°24' E 010°30'0 0.0 1020.4
2014-Sep-01 00:00N 57°24' E 010°30'0 0.0 1020.4
2014-Aug-31 23:00N 57°24' E 010°30'0 0.0 1019.9
2014-Aug-31 22:00N 57°24' E 010°30'0 0.0 1019.6
2014-Aug-31 21:00N 57°24' E 010°30'0 0.0 1019.3
2014-Aug-31 20:00N 57°24' E 010°30'0 0.0 1018.9
2014-Aug-31 19:00N 57°24' E 010°30'0 0.0 1018.4
2014-Aug-31 18:00N 57°24' E 010°30'0 0.0 1017.7
2014-Aug-31 17:00N 57°24' E 010°30'0 0.0 1017.5
2014-Aug-31 16:00N 57°24' E 010°30'0 0.0 1017.5
2014-Aug-31 15:00N 57°24' E 010°30'0 0.0 1017.0
2014-Aug-31 14:00N 57°24' E 010°30'0 0.0 1016.8
2014-Aug-31 13:00N 57°24' E 010°30'0 0.0 1016.7
2014-Aug-31 12:00N 57°24' E 010°30'0 0.0 1016.5
2014-Aug-31 11:00N 57°24' E 010°30'0 0.0 1016.1
2014-Aug-31 10:00N 57°24' E 010°30'0 0.0 1015.8
2014-Aug-31 09:00N 57°24' E 010°30'0 0.0 1015.3
2014-Aug-31 08:00N 57°24' E 010°30'3 1.0 1014.5
2014-Aug-31 05:15N 57°26' E 010°33'0 0.0
2014-Aug-31 04:32N 57°26' E 010°33'3 4.8
2014-Aug-31 04:00N 57°24' E 010°30'3 5.9 1012.5
2014-Aug-31 03:32N 57°26' E 010°33'3 4.8
2014-Aug-31 03:00N 57°24' E 010°30'0 0.0 1012.5
2014-Aug-31 02:00N 57°24' E 010°30'0 0.0 1012.5
2014-Aug-31 01:00N 57°24' E 010°30'0 0.0 1012.5
2014-Aug-31 00:00N 57°24' E 010°30'0 0.0 1012.4
2014-Aug-30 23:00N 57°24' E 010°30'0 0.0 1012.1
2014-Aug-30 22:00N 57°24' E 010°30'0 0.0 1011.9
2014-Aug-30 21:00N 57°24' E 010°30'0 0.0 1011.8
2014-Aug-30 20:00N 57°24' E 010°30'0 0.0 1011.5
2014-Aug-30 19:00N 57°24' E 010°30'0 0.0 1011.2
2014-Aug-30 18:00N 57°24' E 010°30'0 0.0 1010.9
2014-Aug-30 17:00N 57°24' E 010°30'0 0.0 1011.0
2014-Aug-30 16:00N 57°24' E 010°30'0 0.0 1011.3
2014-Aug-30 15:00N 57°24' E 010°30'0 0.0 1011.3
2014-Aug-30 14:00N 57°24' E 010°30'0 0.0 1011.6
2014-Aug-30 13:00N 57°24' E 010°30'0 0.0 1012.0
2014-Aug-30 12:00N 57°24' E 010°30'0 0.0 1012.1
2014-Aug-30 11:00N 57°24' E 010°30'0 0.0 1012.2
2014-Aug-30 10:00N 57°24' E 010°30'0 0.0 1012.1
2014-Aug-30 09:00N 57°24' E 010°30'0 0.0 1012.1
2014-Aug-30 08:00N 57°24' E 010°30'0 0.0 1012.1
2014-Aug-30 07:00N 57°24' E 010°30'0 0.0 1012.1
2014-Aug-30 06:00N 57°24' E 010°30'0 0.0 1011.8
2014-Aug-30 05:00N 57°24' E 010°30'0 0.0 1011.6
2014-Aug-30 04:00N 57°24' E 010°30'0 0.0 1011.5
2014-Aug-30 03:00N 57°24' E 010°30'0 0.0 1011.5
2014-Aug-30 02:00N 57°24' E 010°30'0 0.0 1011.7
2014-Aug-30 01:00N 57°24' E 010°30'0 0.0 1011.5
2014-Aug-30 00:00N 57°24' E 010°30'0 0.0 1011.3
2014-Aug-29 23:00N 57°24' E 010°30'0 0.0 1011.7
2014-Aug-29 22:00N 57°24' E 010°30'0 0.0 1012.0
2014-Aug-29 21:00N 57°24' E 010°30'0 0.0 1012.2
2014-Aug-29 20:00N 57°24' E 010°30'0 0.0 1012.3
2014-Aug-29 19:00N 57°24' E 010°30'0 0.0 1012.5
2014-Aug-29 18:00N 57°24' E 010°30'0 0.0 1012.5
2014-Aug-29 17:00N 57°24' E 010°30'0 0.0 1012.6
2014-Aug-29 16:00N 57°24' E 010°30'0 0.0 1013.1
2014-Aug-29 15:00N 57°24' E 010°30'0 0.0 1013.1
2014-Aug-29 14:00N 57°24' E 010°30'0 0.0 1013.1
2014-Aug-29 13:00N 57°24' E 010°30'0 0.0 1013.5
2014-Aug-29 12:00N 57°24' E 010°30'3 4.4 1013.4
2014-Aug-29 11:23N 57°26' E 010°33'3 6.7
2014-Aug-29 11:00N 57°24' E 010°30'3 5.3 1013.7
2014-Aug-29 10:29N 57°26' E 010°33'3 5.4
2014-Aug-29 10:00N 57°24' E 010°30'3 5.3 1013.9
2014-Aug-29 09:29N 57°26' E 010°33'3 5.4
2014-Aug-29 09:00N 57°24' E 010°30'0 0.0 1014.1
2014-Aug-29 08:00N 57°24' E 010°30'0 0.0 1014.1
2014-Aug-29 07:00N 57°24' E 010°30'0 0.0 1014.3
2014-Aug-29 06:00N 57°24' E 010°30'0 0.0 1014.4
2014-Aug-29 05:00N 57°24' E 010°30'0 0.0 1014.4
2014-Aug-29 04:00N 57°24' E 010°30'0 0.0 1014.5
2014-Aug-29 03:00N 57°24' E 010°30'0 0.0 1014.8
2014-Aug-29 02:00N 57°24' E 010°30'0 0.0 1015.0
2014-Aug-29 01:00N 57°24' E 010°30'0 0.0 1015.4
2014-Aug-29 00:00N 57°24' E 010°30'0 0.0 1015.5
2014-Aug-28 23:00N 57°24' E 010°30'0 0.0 1015.8
2014-Aug-28 22:00N 57°24' E 010°30'0 0.0 1015.8
2014-Aug-28 21:00N 57°24' E 010°30'0 0.0 1015.9
2014-Aug-28 20:00N 57°24' E 010°30'0 0.0 1015.9
2014-Aug-28 19:00N 57°24' E 010°30'3 3.3 1015.9
2014-Aug-28 18:11N 57°26' E 010°33'313.6
2014-Aug-28 18:00N 57°24' E 010°30'0 0.0 1015.3
2014-Aug-28 17:00N 57°24' E 010°30'0 0.0 1015.4
2014-Aug-28 16:00N 57°24' E 010°30'0 0.0 1015.6
2014-Aug-28 15:00N 57°24' E 010°30'0 0.0 1015.8
2014-Aug-28 14:00N 57°24' E 010°30'0 0.0 1015.9
2014-Aug-28 13:00N 57°24' E 010°30'0 0.0 1015.9
2014-Aug-28 12:00N 57°24' E 010°30'0 0.0 1015.9
2014-Aug-28 11:00N 57°24' E 010°30'0 0.0 1015.7
2014-Aug-28 10:00N 57°24' E 010°30'0 0.0 1015.7
2014-Aug-28 09:00N 57°24' E 010°30'0 0.0 1015.7
2014-Aug-28 08:00N 57°24' E 010°30'0 0.0 1015.4
2014-Aug-28 07:00N 57°24' E 010°30'0 0.0 1015.4
2014-Aug-27 19:00N 57°24' E 010°30'0 0.0 1014.7
2014-Aug-27 18:00N 57°24' E 010°30'0 0.0 1014.6
2014-Aug-27 17:00N 57°24' E 010°30'0 0.0 1014.5
2014-Aug-27 16:00N 57°24' E 010°30'0 0.0 1014.5
2014-Aug-27 15:00N 57°24' E 010°30'0 0.0 1014.5
2014-Aug-27 14:00N 57°24' E 010°30'0 0.0 1014.6
2014-Aug-27 13:00N 57°24' E 010°30'0 0.0 1014.6
2014-Aug-27 12:00N 57°24' E 010°30'0 0.0 1014.5
2014-Aug-27 11:00N 57°24' E 010°30'0 0.0 1014.5
2014-Aug-27 10:00N 57°24' E 010°30'0 0.0 1014.3
2014-Aug-27 09:00N 57°24' E 010°30'0 0.0 1014.0
2014-Aug-27 08:00N 57°24' E 010°30'0 0.0 1013.6
2014-Aug-27 07:00N 57°24' E 010°30'0 0.0 1013.2
2014-Aug-27 06:00N 57°24' E 010°30'0 0.0 1012.7
2014-Aug-27 05:00N 57°24' E 010°30'0 0.0 1012.2
2014-Aug-27 04:00N 57°24' E 010°30'0 0.0 1011.9
2014-Aug-27 03:00N 57°24' E 010°30'0 0.0 1011.6
2014-Aug-27 02:00N 57°24' E 010°30'0 0.0 1011.4
2014-Aug-27 01:00N 57°24' E 010°30'0 0.0 1011.2
2014-Aug-27 00:00N 57°24' E 010°30'0 0.0 1011.0
2014-Aug-26 23:00N 57°24' E 010°30'0 0.0 1011.0
2014-Aug-26 22:00N 57°24' E 010°30'0 0.0 1010.8
2014-Aug-26 21:00N 57°24' E 010°30'0 0.0 1010.7
2014-Aug-26 20:00N 57°24' E 010°30'0 0.0 1010.6
2014-Aug-26 19:00N 57°24' E 010°30'0 0.0 1010.0
2014-Aug-26 18:00N 57°24' E 010°30'0 0.0 1009.5
2014-Aug-26 15:00N 57°24' E 010°30'0 0.0 1009.3
2014-Aug-26 14:00N 57°24' E 010°30'0 0.0 1009.4
2014-Aug-26 13:00N 57°24' E 010°30'0 0.0 1009.3
2014-Aug-26 12:00N 57°24' E 010°30'0 0.0 1009.0
2014-Aug-26 11:00N 57°24' E 010°30'0 0.0 1009.1
2014-Aug-26 10:00N 57°24' E 010°30'0 0.0 1008.9
2014-Aug-26 09:00N 57°24' E 010°30'0 0.0 1008.5
2014-Aug-26 08:00N 57°24' E 010°30'0 0.0 1008.1
2014-Aug-26 07:00N 57°24' E 010°30'0 0.0 1007.5
2014-Aug-26 06:00N 57°24' E 010°30'0 0.0 1007.1
2014-Aug-26 05:00N 57°24' E 010°30'0 0.0 1007.2
2014-Aug-26 04:00N 57°24' E 010°30'0 0.0 1007.0
2014-Aug-26 03:00N 57°24' E 010°30'0 0.0 1006.9
2014-Aug-26 02:00N 57°24' E 010°30'0 0.0 1007.0
2014-Aug-26 01:00N 57°24' E 010°30'0 0.0 1006.9
2014-Aug-26 00:00N 57°24' E 010°30'0 0.0 1007.0
2014-Aug-25 23:00N 57°24' E 010°30'0 0.0 1007.3
2014-Aug-25 22:00N 57°24' E 010°30'0 0.0 1007.1
2014-Aug-25 21:00N 57°24' E 010°30'0 0.0 1007.2
2014-Aug-25 20:00N 57°24' E 010°30'0 0.0 1007.5
2014-Aug-25 19:00N 57°24' E 010°30'0 0.0 1007.3
2014-Aug-25 18:00N 57°24' E 010°30'0 0.0 1006.9
2014-Aug-25 17:00N 57°24' E 010°30'0 0.0 1006.9
2014-Aug-25 16:00N 57°24' E 010°30'0 0.0 1007.1
2014-Aug-25 15:00N 57°24' E 010°30'0 0.0 1007.2
2014-Aug-25 14:00N 57°24' E 010°30'0 0.0 1007.1
2014-Aug-25 13:00N 57°24' E 010°30'0 0.0 1007.3
2014-Aug-25 12:00N 57°24' E 010°30'0 0.0 1007.5
2014-Aug-25 11:00N 57°24' E 010°30'0 0.0 1007.5
2014-Aug-25 10:00N 57°24' E 010°30'0 0.0 1007.5
2014-Aug-25 09:00N 57°24' E 010°30'0 0.0 1007.4
2014-Aug-25 08:00N 57°24' E 010°30'0 0.0 1007.2
2014-Aug-25 07:00N 57°24' E 010°30'0 0.0 1007.0
2014-Aug-25 06:00N 57°24' E 010°30'0 0.0 1007.0
2014-Aug-25 05:00N 57°24' E 010°30'0 0.0 1007.0
2014-Aug-25 04:00N 57°24' E 010°30'0 0.0 1007.0
2014-Aug-25 03:00N 57°24' E 010°30'0 0.0 1006.8
2014-Aug-25 02:00N 57°24' E 010°30'0 0.0 1006.9
2014-Aug-25 01:00N 57°24' E 010°30'0 0.0 1006.9
2014-Aug-25 00:00N 57°24' E 010°30'0 0.0 1007.3
2014-Aug-24 23:00N 57°24' E 010°30'0 0.0 1007.5
2014-Aug-24 22:00N 57°24' E 010°30'0 0.0 1007.5
2014-Aug-24 21:00N 57°24' E 010°30'0 0.0 1007.5
2014-Aug-24 20:00N 57°24' E 010°30'0 0.0 1007.3
2014-Aug-24 19:00N 57°24' E 010°30'0 0.0 1007.0
2014-Aug-24 18:00N 57°24' E 010°30'0 0.0 1006.5
2014-Aug-24 17:00N 57°24' E 010°30'0 0.0 1006.4
2014-Aug-24 16:00N 57°24' E 010°30'0 0.0 1006.1
2014-Aug-24 15:00N 57°24' E 010°30'0 0.0 1005.5
2014-Aug-24 14:00N 57°24' E 010°30'0 0.0 1005.5
2014-Aug-24 13:00N 57°24' E 010°30'0 0.0 1005.1
2014-Aug-24 12:00N 57°24' E 010°30'0 0.0 1004.9
2014-Aug-24 11:00N 57°24' E 010°30'0 0.0 1004.9
2014-Aug-24 10:00N 57°24' E 010°30'0 0.0 1004.7
2014-Aug-24 09:00N 57°24' E 010°30'0 0.0 1004.6
2014-Aug-24 08:00N 57°24' E 010°30'0 0.0 1004.5
2014-Aug-24 07:00N 57°24' E 010°30'0 0.0 1004.4
2014-Aug-24 06:00N 57°24' E 010°30'0 0.0 1004.4
2014-Aug-24 05:00N 57°24' E 010°30'0 0.0 1004.1
2014-Aug-24 04:00N 57°24' E 010°30'0 0.0 1004.5
2014-Aug-24 03:00N 57°24' E 010°30'0 0.0 1004.9
2014-Aug-24 02:00N 57°24' E 010°30'0 0.0 1005.1
2014-Aug-24 01:00N 57°24' E 010°30'0 0.0 1005.6
2014-Aug-24 00:00N 57°24' E 010°30'0 0.0 1005.5
2014-Aug-23 23:00N 57°24' E 010°30'0 0.0 1005.8
2014-Aug-23 22:00N 57°24' E 010°30'0 0.0 1005.8
2014-Aug-23 21:00N 57°24' E 010°30'0 0.0 1005.9
2014-Aug-23 20:00N 57°24' E 010°30'0 0.0 1005.5
2014-Aug-23 19:00N 57°24' E 010°30'0 0.0 1005.1
2014-Aug-23 18:00N 57°24' E 010°30'0 0.0 1004.7
2014-Aug-23 17:00N 57°24' E 010°30'0 0.0 1004.3
2014-Aug-23 16:00N 57°24' E 010°30'0 0.0 1004.4
2014-Aug-23 15:00N 57°24' E 010°30'0 0.0 1004.3
2014-Aug-23 14:00N 57°24' E 010°30'0 0.0 1004.4
2014-Aug-23 13:00N 57°24' E 010°30'0 0.0 1004.4
2014-Aug-23 12:00N 57°24' E 010°30'0 0.0 1004.4
2014-Aug-23 11:00N 57°24' E 010°30'0 0.0 1004.4
2014-Aug-23 10:00N 57°24' E 010°30'0 0.0 1004.0
2014-Aug-23 09:00N 57°24' E 010°30'0 0.0 1003.7
2014-Aug-23 08:00N 57°24' E 010°30'0 0.0 1003.5
2014-Aug-23 07:00N 57°24' E 010°30'0 0.0 1003.3
2014-Aug-23 06:00N 57°24' E 010°30'0 0.0 1003.0
2014-Aug-23 05:00N 57°24' E 010°30'0 0.0 1002.8
2014-Aug-23 04:00N 57°24' E 010°30'0 0.0 1002.6
2014-Aug-23 03:00N 57°24' E 010°30'0 0.0 1002.8
2014-Aug-23 02:00N 57°24' E 010°30'0 0.0 1003.0
2014-Aug-23 01:00N 57°24' E 010°30'0 0.0 1003.2
2014-Aug-23 00:00N 57°24' E 010°30'0 0.0 1003.3
2014-Aug-22 23:00N 57°24' E 010°30'0 0.0 1003.6
2014-Aug-22 22:00N 57°24' E 010°30'0 0.0 1003.8
2014-Aug-22 21:00N 57°24' E 010°30'0 0.0 1004.1
2014-Aug-22 20:00N 57°24' E 010°30'0 0.0 1004.0
2014-Aug-22 19:00N 57°24' E 010°30'   1004.1

Dump ship's entire track history